Terminal Aerodrome Forecast
Issued by NWS

Home | Current Version | Previous Version | Text Only | Print | Product List | Glossary On
Versions: 1 2 3 4 5 6 7 8 9 10 11 12 13
787
FTUS45 KRIW 270538
TAFBPI
TAF
KBPI 270538Z 2706/2806 28007KT P6SM VCSH SCT015 OVC025
     FM270900 32014G22KT 2SM -SHSN OVC015
     FM271500 31022G30KT P6SM VCSH SCT025 OVC040
     FM280100 33014KT P6SM VCSH BKN035=

USA.gov is the U.S. government's official web portal to all federal, state and local government web resources and services.